Time;durP1;ratioP1;P1;durP2;ratioP2;P2;SDS_P1;SDS_P2;PMS_P1;PMS_P2;Temp;Humidity;BMP_temperature;BMP_pressure;BME280_temperature;BME280_humidity;BME280_pressure;Samples;Min_cycle;Max_cycle;Signal;HPM_P1;HPM_P2
2022/04/20 00:00:03;;;;;;;7.70;5.97;;;10.50;75.00;;;;;;6123287;23;20380;-79
2022/04/20 00:02:30;;;;;;;8.40;6.05;;;10.40;74.60;;;;;;6100347;23;20385;-78
2022/04/20 00:04:57;;;;;;;9.70;6.50;;;10.30;74.80;;;;;;6150779;23;20415;-79
2022/04/20 00:07:24;;;;;;;6.32;5.70;;;10.20;75.70;;;;;;6113599;23;20377;-79
2022/04/20 00:09:51;;;;;;;9.20;5.75;;;10.10;75.30;;;;;;6129529;23;20399;-79
2022/04/20 00:12:19;;;;;;;7.95;5.97;;;10.00;76.00;;;;;;6110672;23;20379;-79
2022/04/20 00:14:45;;;;;;;9.53;6.50;;;10.00;75.30;;;;;;6121622;23;20383;-80
2022/04/20 00:17:12;;;;;;;8.27;6.50;;;9.90;75.60;;;;;;6124681;23;20888;-78
2022/04/20 00:19:39;;;;;;;8.05;6.80;;;9.90;76.30;;;;;;6121925;23;20434;-80
2022/04/20 00:22:06;;;;;;;7.07;6.38;;;9.80;77.30;;;;;;6121677;23;20375;-80
2022/04/20 00:24:39;;;;;;;6.85;6.15;;;9.70;77.70;;;;;;6126670;23;20439;-79
2022/04/20 00:27:06;;;;;;;8.25;6.47;;;9.70;76.80;;;;;;6128932;23;20406;-80
2022/04/20 00:29:36;;;;;;;6.85;6.15;;;9.70;75.70;;;;;;6122503;23;20744;-80
2022/04/20 00:32:03;;;;;;;7.68;6.40;;;9.70;75.20;;;;;;6119245;23;20380;-80
2022/04/20 00:34:33;;;;;;;7.43;6.50;;;9.80;75.40;;;;;;6127557;23;20985;-79
2022/04/20 00:37:00;;;;;;;8.55;6.43;;;9.70;75.50;;;;;;6121703;23;20717;-79
2022/04/20 00:39:27;;;;;;;9.48;7.10;;;9.70;76.60;;;;;;6120331;23;20380;-81
2022/04/20 00:42:01;;;;;;;8.50;6.97;;;9.60;78.00;;;;;;6129165;23;20407;-80
2022/04/20 00:44:31;;;;;;;8.15;7.38;;;9.60;76.70;;;;;;6126741;23;20383;-79
2022/04/20 00:47:01;;;;;;;7.77;6.97;;;9.60;77.20;;;;;;6117171;23;20379;-79
2022/04/20 00:49:30;;;;;;;7.47;6.78;;;9.50;76.90;;;;;;6122924;23;20411;-80
2022/04/20 00:51:58;;;;;;;7.55;6.85;;;9.40;76.90;;;;;;6125256;23;20380;-79
2022/04/20 00:54:28;;;;;;;7.88;6.50;;;9.30;76.40;;;;;;6125520;23;20780;-78
2022/04/20 00:56:55;;;;;;;7.87;6.67;;;9.20;76.40;;;;;;6126540;23;20498;-79
2022/04/20 00:59:25;;;;;;;9.13;6.93;;;9.20;75.70;;;;;;6124821;23;20388;-80
2022/04/20 01:01:52;;;;;;;8.10;6.82;;;9.10;76.50;;;;;;6125535;23;20383;-80
2022/04/20 01:04:21;;;;;;;9.40;7.07;;;9.00;76.60;;;;;;6149425;23;20392;-79
2022/04/20 01:06:50;;;;;;;8.38;7.32;;;9.10;76.90;;;;;;6124016;23;21204;-77
2022/04/20 01:09:18;;;;;;;8.30;7.18;;;9.10;76.80;;;;;;6111616;23;20383;-78
2022/04/20 01:11:45;;;;;;;7.78;6.85;;;9.10;76.70;;;;;;6116406;23;20391;-78
2022/04/20 01:14:12;;;;;;;10.32;7.65;;;9.10;76.40;;;;;;6107947;23;20376;-77
2022/04/20 01:16:39;;;;;;;7.53;6.83;;;9.10;78.00;;;;;;6102624;23;20483;-80
2022/04/20 01:19:06;;;;;;;8.77;6.72;;;9.10;77.40;;;;;;6125706;23;20923;-78
2022/04/20 01:21:33;;;;;;;7.20;6.03;;;9.10;77.10;;;;;;6123214;23;20376;-77
2022/04/20 01:24:00;;;;;;;9.85;7.70;;;9.10;77.70;;;;;;6122741;23;20390;-80
2022/04/20 01:26:29;;;;;;;8.05;6.88;;;9.20;81.00;;;;;;6123251;23;20752;-79
2022/04/20 01:28:58;;;;;;;9.95;8.32;;;9.20;80.50;;;;;;6124516;23;20885;-80
2022/04/20 01:31:25;;;;;;;10.07;8.00;;;9.00;80.80;;;;;;6121971;23;20380;-79
2022/04/20 01:33:52;;;;;;;7.63;6.93;;;8.70;80.60;;;;;;6126461;23;20382;-78
2022/04/20 01:36:19;;;;;;;8.30;7.50;;;8.40;81.50;;;;;;6122962;23;20375;-77
2022/04/20 01:38:46;;;;;;;7.60;6.90;;;8.50;80.80;;;;;;6124601;23;20435;-80
2022/04/20 01:41:13;;;;;;;10.88;7.40;;;8.40;80.80;;;;;;6125809;23;20376;-80
2022/04/20 01:43:40;;;;;;;11.15;7.70;;;8.20;81.40;;;;;;6122099;23;20856;-79
2022/04/20 01:46:07;;;;;;;8.32;7.35;;;8.20;81.70;;;;;;6127110;23;20384;-80
2022/04/20 01:48:34;;;;;;;7.90;6.63;;;8.20;81.30;;;;;;6116326;23;20421;-77
2022/04/20 01:53:52;;;;;;;8.80;7.95;;;8.40;79.30;;;;;;6118736;23;20387;-78
2022/04/20 01:56:20;;;;;;;10.30;8.10;;;8.40;81.50;;;;;;6123236;23;20372;-79
2022/04/20 01:58:53;;;;;;;10.30;9.00;;;8.40;81.00;;;;;;6124025;23;20380;-79
2022/04/20 02:04:06;;;;;;;11.15;9.20;;;8.40;85.00;;;;;;6127757;23;20380;-77
2022/04/20 02:06:33;;;;;;;11.80;9.02;;;8.40;82.90;;;;;;6097589;23;20862;-79
2022/04/20 02:09:01;;;;;;;9.30;8.40;;;8.50;83.90;;;;;;6122503;23;20375;-78
2022/04/20 02:11:28;;;;;;;9.02;8.13;;;8.50;82.40;;;;;;6124853;23;20405;-80
2022/04/20 02:13:55;;;;;;;10.57;8.77;;;8.60;81.70;;;;;;6122028;23;20372;-77
2022/04/20 02:16:22;;;;;;;8.93;8.05;;;8.60;82.10;;;;;;6111440;23;20379;-80
2022/04/20 02:18:49;;;;;;;8.63;7.75;;;8.60;81.40;;;;;;6122507;23;20432;-77
2022/04/20 02:21:16;;;;;;;9.02;8.13;;;8.60;81.70;;;;;;6125565;23;20919;-79
2022/04/20 02:23:45;;;;;;;9.52;8.63;;;8.70;81.80;;;;;;6111316;23;20860;-79
2022/04/20 02:26:12;;;;;;;11.98;9.43;;;8.70;81.20;;;;;;6121837;23;20375;-77
2022/04/20 02:28:39;;;;;;;9.93;9.00;;;8.70;81.70;;;;;;6122776;23;20380;-77
2022/04/20 02:31:06;;;;;;;9.10;8.27;;;8.60;81.70;;;;;;6123125;23;20383;-79
2022/04/20 02:33:33;;;;;;;10.30;9.05;;;8.50;81.70;;;;;;6122461;23;20540;-79
2022/04/20 02:36:00;;;;;;;10.00;9.03;;;8.50;82.40;;;;;;6109065;23;20390;-80
2022/04/20 02:38:29;;;;;;;11.40;9.73;;;8.40;82.30;;;;;;6119351;23;20676;-79
2022/04/20 02:40:56;;;;;;;9.83;8.83;;;8.40;82.60;;;;;;6116062;23;20368;-79
2022/04/20 02:43:23;;;;;;;10.25;8.85;;;8.40;83.00;;;;;;6110009;23;20447;-79
2022/04/20 02:45:53;;;;;;;10.33;9.43;;;8.40;83.20;;;;;;6123307;23;20785;-79
2022/04/20 02:48:25;;;;;;;9.68;8.68;;;8.30;83.90;;;;;;6123625;23;20388;-78
2022/04/20 02:50:54;;;;;;;10.00;9.00;;;8.20;83.60;;;;;;6122351;23;20515;-79
2022/04/20 02:53:20;;;;;;;10.27;9.23;;;8.20;82.80;;;;;;6098200;23;20443;-77
2022/04/20 02:55:47;;;;;;;10.27;9.27;;;7.90;83.40;;;;;;6108638;23;20939;-77
2022/04/20 02:58:14;;;;;;;11.00;9.90;;;7.90;84.00;;;;;;6114524;23;20376;-78
2022/04/20 03:00:43;;;;;;;11.60;10.40;;;7.70;86.20;;;;;;6121746;23;20415;-79
2022/04/20 03:03:10;;;;;;;10.88;9.77;;;7.70;87.90;;;;;;6146289;23;20400;-77
2022/04/20 03:05:37;;;;;;;14.45;11.32;;;7.80;86.80;;;;;;6122644;23;20383;-80
2022/04/20 03:08:04;;;;;;;12.77;11.50;;;7.80;88.70;;;;;;6104076;23;20389;-78
2022/04/20 03:10:31;;;;;;;12.93;11.18;;;7.80;89.80;;;;;;6115032;23;20837;-78
2022/04/20 03:12:58;;;;;;;12.02;10.48;;;7.70;90.20;;;;;;6108418;23;20389;-78
2022/04/20 03:15:25;;;;;;;12.27;10.52;;;7.90;89.70;;;;;;6125642;23;20411;-77
2022/04/20 03:17:51;;;;;;;13.32;11.35;;;8.00;89.30;;;;;;6122806;23;20860;-77
2022/04/20 03:20:22;;;;;;;11.63;10.10;;;8.10;88.90;;;;;;6123446;23;20383;-78
2022/04/20 03:22:48;;;;;;;12.77;11.45;;;8.30;88.70;;;;;;6143548;23;20829;-78
2022/04/20 03:25:16;;;;;;;11.88;10.68;;;8.40;88.50;;;;;;6123613;23;20387;-79
2022/04/20 03:27:50;;;;;;;12.63;11.30;;;8.60;88.30;;;;;;6126985;23;20366;-79
2022/04/20 03:30:19;;;;;;;12.07;10.77;;;8.70;89.00;;;;;;6127951;23;20519;-79
2022/04/20 03:32:46;;;;;;;16.05;12.25;;;8.80;89.00;;;;;;6126166;23;20430;-79
2022/04/20 03:35:15;;;;;;;13.30;11.45;;;8.90;89.70;;;;;;6123704;23;20418;-79
2022/04/20 03:37:42;;;;;;;13.48;12.18;;;8.90;89.80;;;;;;6123137;23;20379;-77
2022/04/20 03:40:10;;;;;;;13.02;11.70;;;9.10;90.00;;;;;;6126195;23;20844;-78
2022/04/20 03:42:43;;;;;;;14.10;11.50;;;9.10;89.70;;;;;;6124622;23;20375;-79
2022/04/20 03:45:10;;;;;;;13.93;11.52;;;9.20;89.50;;;;;;6124763;23;20388;-79
2022/04/20 03:47:37;;;;;;;12.35;11.00;;;9.20;89.60;;;;;;6122609;23;20423;-77
2022/04/20 03:50:04;;;;;;;11.40;10.30;;;9.30;89.40;;;;;;6126575;23;20435;-77
2022/04/20 03:52:31;;;;;;;14.68;9.90;;;9.40;88.40;;;;;;6108438;23;20413;-77
2022/04/20 03:54:58;;;;;;;14.77;12.10;;;9.40;87.60;;;;;;6113740;23;20381;-78
2022/04/20 03:57:30;;;;;;;18.00;14.90;;;9.50;88.00;;;;;;6119143;23;20384;-79
2022/04/20 03:59:57;;;;;;;22.70;16.73;;;9.60;87.60;;;;;;6122532;23;20411;-79
2022/04/20 04:02:29;;;;;;;24.97;19.70;;;9.70;87.00;;;;;;6122782;23;20427;-79
2022/04/20 04:04:56;;;;;;;43.63;32.63;;;9.70;87.60;;;;;;6121112;23;20442;-79
2022/04/20 04:07:23;;;;;;;44.97;33.75;;;9.80;87.50;;;;;;6123059;23;20408;-77
2022/04/20 04:09:52;;;;;;;35.08;27.85;;;9.80;87.40;;;;;;6122706;23;21315;-80
2022/04/20 04:12:24;;;;;;;21.35;17.20;;;9.80;87.30;;;;;;6117651;23;20375;-79
2022/04/20 04:14:52;;;;;;;16.80;14.10;;;9.90;87.10;;;;;;6123963;23;20443;-77
2022/04/20 04:17:18;;;;;;;16.07;12.43;;;9.90;86.70;;;;;;6125220;23;20864;-78
2022/04/20 04:19:46;;;;;;;12.23;10.47;;;10.00;86.40;;;;;;6124222;23;20379;-79
2022/04/20 04:22:13;;;;;;;11.45;9.90;;;10.10;85.90;;;;;;6112496;23;20380;-79
2022/04/20 04:24:43;;;;;;;11.73;10.43;;;10.10;85.80;;;;;;6124486;23;20864;-78
2022/04/20 04:27:17;;;;;;;11.63;10.43;;;10.20;85.20;;;;;;6126171;23;20368;-79
2022/04/20 04:29:44;;;;;;;10.77;9.68;;;10.30;85.10;;;;;;6125508;23;20376;-79
2022/04/20 04:32:12;;;;;;;15.15;10.23;;;10.40;84.80;;;;;;6123407;23;20391;-79
2022/04/20 04:34:46;;;;;;;13.07;9.27;;;10.40;84.60;;;;;;6125904;23;20371;-78
2022/04/20 04:37:14;;;;;;;9.57;8.60;;;10.50;84.00;;;;;;6124067;23;20371;-79
2022/04/20 04:39:46;;;;;;;13.07;9.93;;;10.50;83.60;;;;;;6125919;23;20384;-78
2022/04/20 04:42:22;;;;;;;12.35;10.45;;;10.60;84.40;;;;;;6124331;23;20395;-79
2022/04/20 04:44:49;;;;;;;11.87;10.10;;;10.60;84.90;;;;;;6124616;23;20446;-79
2022/04/20 04:50:04;;;;;;;13.63;11.13;;;10.50;85.80;;;;;;6125439;23;20407;-78
2022/04/20 04:52:33;;;;;;;12.25;10.85;;;10.60;85.70;;;;;;6122628;23;20375;-77
2022/04/20 04:55:00;;;;;;;20.52;14.63;;;10.60;86.00;;;;;;6124451;23;20379;-80
2022/04/20 04:57:27;;;;;;;17.30;14.97;;;10.70;86.60;;;;;;6123073;23;20399;-80
2022/04/20 04:59:54;;;;;;;19.37;16.73;;;10.80;87.20;;;;;;6113287;23;20410;-77
2022/04/20 05:02:21;;;;;;;21.37;19.07;;;10.80;87.50;;;;;;6106343;23;20885;-77
2022/04/20 05:04:48;;;;;;;21.88;18.10;;;10.80;87.50;;;;;;6115909;23;20382;-78
2022/04/20 05:07:14;;;;;;;23.63;19.23;;;10.80;87.90;;;;;;6123546;23;20446;-80
2022/04/20 05:09:44;;;;;;;22.60;20.13;;;10.80;88.30;;;;;;6113867;23;20403;-78
2022/04/20 05:12:11;;;;;;;23.65;21.17;;;10.70;88.10;;;;;;6123513;23;20864;-80
2022/04/20 05:14:39;;;;;;;21.85;19.60;;;10.70;86.70;;;;;;6111641;23;20382;-76
2022/04/20 05:17:11;;;;;;;24.00;20.38;;;10.60;84.40;;;;;;6123027;23;20431;-79
2022/04/20 05:19:38;;;;;;;20.67;18.47;;;10.50;84.60;;;;;;6124218;23;20386;-81
2022/04/20 05:22:05;;;;;;;20.00;17.88;;;10.50;83.60;;;;;;6125494;23;20387;-78
2022/04/20 05:24:36;;;;;;;19.95;17.92;;;10.40;82.90;;;;;;6122940;23;20382;-79
2022/04/20 05:27:04;;;;;;;20.65;18.45;;;10.40;82.70;;;;;;6121734;23;20442;-78
2022/04/20 05:29:31;;;;;;;20.00;18.00;;;10.40;83.10;;;;;;6122560;23;20379;-80
2022/04/20 05:31:59;;;;;;;19.35;17.45;;;10.40;83.30;;;;;;6120928;23;20439;-80
2022/04/20 05:34:30;;;;;;;20.02;17.92;;;10.40;82.60;;;;;;6123252;23;20387;-80
2022/04/20 05:42:37;;;;;;;17.50;15.77;;;10.20;81.80;;;;;;6123908;23;20372;-80
2022/04/20 05:45:05;;;;;;;16.25;14.65;;;10.10;83.00;;;;;;6096701;23;20841;-79
2022/04/20 05:47:33;;;;;;;14.98;13.48;;;10.10;82.80;;;;;;6122981;23;20446;-80
2022/04/20 05:50:00;;;;;;;15.40;13.88;;;10.10;82.40;;;;;;6113413;23;20770;-80
2022/04/20 05:52:26;;;;;;;12.40;11.10;;;10.00;83.10;;;;;;6118777;23;20376;-80
2022/04/20 05:55:00;;;;;;;12.07;10.30;;;10.10;81.80;;;;;;6123011;23;20912;-79
2022/04/20 05:57:26;;;;;;;10.83;9.60;;;10.10;81.40;;;;;;6120223;23;20375;-78
2022/04/20 05:59:53;;;;;;;10.97;9.87;;;10.00;80.00;;;;;;6109371;23;20764;-78
2022/04/20 06:02:20;;;;;;;11.20;10.05;;;10.00;80.60;;;;;;6122175;23;20886;-80
2022/04/20 06:04:47;;;;;;;11.35;10.15;;;9.90;80.60;;;;;;6105764;23;20440;-79
2022/04/20 06:07:21;;;;;;;12.18;10.32;;;9.90;80.90;;;;;;6115586;23;20438;-78
2022/04/20 06:09:47;;;;;;;12.00;10.30;;;9.90;80.30;;;;;;6122558;23;20384;-78
2022/04/20 06:12:19;;;;;;;14.25;11.60;;;9.90;80.40;;;;;;6110722;23;20383;-76
2022/04/20 06:14:47;;;;;;;13.15;11.75;;;9.90;80.80;;;;;;6123069;23;20375;-80
2022/04/20 06:17:14;;;;;;;11.68;10.57;;;9.90;81.30;;;;;;6122947;23;20428;-78
2022/04/20 06:19:47;;;;;;;10.85;9.70;;;10.00;81.20;;;;;;6123084;23;20690;-78
2022/04/20 06:22:14;;;;;;;11.90;10.68;;;10.00;79.80;;;;;;6122338;23;20379;-79
2022/04/20 06:24:40;;;;;;;14.95;12.57;;;10.00;81.40;;;;;;6124689;23;20376;-80
2022/04/20 06:27:08;;;;;;;15.43;13.77;;;10.10;81.40;;;;;;6118240;23;20388;-78
2022/04/20 06:29:35;;;;;;;15.35;13.85;;;10.10;83.00;;;;;;6112890;23;20395;-78
2022/04/20 06:32:02;;;;;;;13.80;12.38;;;10.10;84.40;;;;;;6123656;23;20394;-77
2022/04/20 06:34:29;;;;;;;15.70;13.95;;;10.10;84.10;;;;;;6121681;23;20419;-78
2022/04/20 06:36:56;;;;;;;9.50;7.57;;;10.00;84.50;;;;;;6119026;23;20374;-77
2022/04/20 06:39:23;;;;;;;9.90;8.65;;;10.00;78.10;;;;;;6112283;23;20856;-77
2022/04/20 06:41:51;;;;;;;21.75;15.15;;;10.10;79.60;;;;;;6120915;23;20387;-77
2022/04/20 06:44:19;;;;;;;25.88;13.18;;;10.10;79.50;;;;;;6121805;23;20442;-79
2022/04/20 06:46:46;;;;;;;12.32;11.02;;;10.10;79.00;;;;;;6122066;23;20383;-77
2022/04/20 06:49:14;;;;;;;15.35;13.85;;;10.10;81.90;;;;;;6122200;23;20887;-78
2022/04/20 07:00:02;;;;;;;27.25;19.35;;;9.90;85.10;;;;;;6123836;23;20438;-77
2022/04/20 07:02:33;;;;;;;30.00;22.55;;;9.80;86.40;;;;;;6121818;23;20450;-77
2022/04/20 07:05:00;;;;;;;24.88;19.48;;;9.70;87.10;;;;;;6120978;23;20380;-76
2022/04/20 07:07:27;;;;;;;20.00;16.48;;;9.80;86.80;;;;;;6121343;23;20903;-80
2022/04/20 07:10:14;;;;;;;20.33;16.08;;;9.70;85.60;;;;;;6121024;23;20386;-78
2022/04/20 07:12:41;;;;;;;20.15;15.80;;;9.60;85.60;;;;;;6123583;23;20435;-78
2022/04/20 07:15:08;;;;;;;17.17;14.13;;;9.70;85.70;;;;;;6120038;23;20496;-77
2022/04/20 07:17:35;;;;;;;14.88;12.63;;;9.80;85.30;;;;;;6122149;23;20878;-78
2022/04/20 07:20:02;;;;;;;17.70;14.20;;;9.90;84.10;;;;;;6110031;23;20386;-77
2022/04/20 07:22:29;;;;;;;18.57;14.70;;;9.80;85.30;;;;;;6120438;23;20470;-79
2022/04/20 07:24:56;;;;;;;14.80;12.33;;;9.80;85.60;;;;;;6121779;23;20384;-78
2022/04/20 07:27:23;;;;;;;17.90;13.57;;;9.80;86.00;;;;;;6120959;23;20781;-76
2022/04/20 07:29:50;;;;;;;16.73;13.93;;;9.80;85.10;;;;;;6121936;23;20860;-77
2022/04/20 07:32:20;;;;;;;15.07;13.40;;;9.70;85.30;;;;;;6122560;23;20376;-78
2022/04/20 07:34:47;;;;;;;15.52;12.63;;;9.80;85.10;;;;;;6120271;23;20379;-78
2022/04/20 07:37:14;;;;;;;18.63;13.63;;;10.00;84.30;;;;;;6121927;23;20383;-77
2022/04/20 07:39:40;;;;;;;18.73;14.30;;;10.10;83.70;;;;;;6121736;23;20379;-80
2022/04/20 07:42:11;;;;;;;18.33;13.93;;;10.10;84.10;;;;;;6124832;23;20435;-78
2022/04/20 07:44:37;;;;;;;21.63;15.45;;;10.20;83.50;;;;;;6123080;23;20395;-80
2022/04/20 07:47:09;;;;;;;16.50;13.25;;;10.20;83.40;;;;;;6111820;23;20434;-78
2022/04/20 07:52:24;;;;;;;21.20;16.65;;;10.20;81.50;;;;;;6125092;23;20391;-78
2022/04/20 07:54:53;;;;;;;23.92;15.73;;;10.30;83.00;;;;;;6128419;23;20375;-79
2022/04/20 07:57:19;;;;;;;17.52;13.52;;;10.30;83.10;;;;;;6125351;23;20384;-78
2022/04/20 07:59:49;;;;;;;18.67;15.57;;;10.40;83.50;;;;;;6124443;23;20433;-78
2022/04/20 08:02:18;;;;;;;21.83;17.73;;;10.30;85.10;;;;;;6125342;23;20383;-76
2022/04/20 08:04:50;;;;;;;18.65;16.65;;;10.20;86.40;;;;;;6125188;23;20387;-78
2022/04/20 08:07:20;;;;;;;20.20;16.30;;;10.20;86.60;;;;;;6124265;23;20768;-78
2022/04/20 08:09:56;;;;;;;19.95;14.98;;;10.20;86.80;;;;;;6125966;23;20375;-79
2022/04/20 08:12:24;;;;;;;20.58;15.32;;;10.00;86.70;;;;;;6123606;23;20431;-80
2022/04/20 08:14:51;;;;;;;16.35;12.77;;;10.00;86.90;;;;;;6126218;23;20450;-80
2022/04/20 08:17:18;;;;;;;16.20;12.88;;;10.00;84.80;;;;;;6125524;23;20418;-77
2022/04/20 08:19:45;;;;;;;17.43;12.80;;;10.00;85.20;;;;;;6125115;23;20448;-78
2022/04/20 08:22:15;;;;;;;15.93;12.13;;;10.10;85.70;;;;;;6124800;23;20415;-79
2022/04/20 08:24:47;;;;;;;15.77;12.70;;;10.10;84.30;;;;;;6121262;23;20907;-79
2022/04/20 08:27:14;;;;;;;19.20;15.15;;;10.00;85.10;;;;;;6109636;23;20426;-77
2022/04/20 08:29:42;;;;;;;20.67;14.55;;;10.00;86.60;;;;;;6115731;23;20439;-78
2022/04/20 08:32:10;;;;;;;19.42;15.23;;;10.00;86.50;;;;;;6119803;23;20387;-78
2022/04/20 08:34:40;;;;;;;18.40;14.97;;;9.90;86.60;;;;;;6125162;23;20873;-80
2022/04/20 08:37:26;;;;;;;18.15;14.77;;;10.00;87.80;;;;;;6124332;23;20383;-78
2022/04/20 08:39:53;;;;;;;20.88;15.73;;;10.10;87.40;;;;;;6126675;23;20390;-77
2022/04/20 08:42:21;;;;;;;18.63;14.32;;;10.10;87.80;;;;;;6112704;23;20379;-80
2022/04/20 08:44:56;;;;;;;16.75;14.48;;;10.20;87.40;;;;;;6125995;23;20445;-79
2022/04/20 08:47:26;;;;;;;15.95;14.25;;;10.30;87.70;;;;;;6122906;23;20463;-77
2022/04/20 08:49:53;;;;;;;18.83;14.70;;;10.30;87.10;;;;;;6112725;23;20372;-80
2022/04/20 08:52:38;;;;;;;16.35;14.02;;;10.30;86.90;;;;;;6124257;23;20384;-78
2022/04/20 08:55:15;;;;;;;20.55;14.88;;;10.40;86.70;;;;;;6112044;23;20363;-77
2022/04/20 08:57:47;;;;;;;14.82;13.25;;;10.50;86.50;;;;;;6124881;23;20391;-80
2022/04/20 09:00:33;;;;;;;14.57;12.75;;;10.40;85.00;;;;;;6124900;23;20375;-79
2022/04/20 09:03:03;;;;;;;16.83;13.80;;;10.40;83.40;;;;;;6123059;23;20384;-80
2022/04/20 09:05:34;;;;;;;16.45;13.50;;;10.30;85.50;;;;;;6123521;23;20757;-78
2022/04/20 09:08:12;;;;;;;15.45;13.10;;;10.50;85.20;;;;;;6122578;23;20383;-77
2022/04/20 09:10:40;;;;;;;18.63;13.65;;;10.60;84.50;;;;;;6122224;23;20717;-77
2022/04/20 09:13:10;;;;;;;16.05;13.32;;;10.70;84.20;;;;;;6121188;23;20492;-78
2022/04/20 09:15:40;;;;;;;16.02;12.50;;;10.80;84.20;;;;;;6122813;23;20382;-80
2022/04/20 09:18:10;;;;;;;16.77;13.00;;;10.80;82.90;;;;;;6121638;23;20761;-77
2022/04/20 09:20:38;;;;;;;15.07;12.90;;;10.90;83.60;;;;;;6113054;23;20380;-79
2022/04/20 09:23:08;;;;;;;15.52;12.40;;;10.90;82.90;;;;;;6123501;23;20384;-80
2022/04/20 09:25:50;;;;;;;12.93;10.20;;;11.00;82.10;;;;;;6122591;23;20383;-80
2022/04/20 09:28:17;;;;;;;16.38;12.80;;;11.00;80.80;;;;;;6122866;23;20394;-77
2022/04/20 09:30:48;;;;;;;17.88;11.80;;;10.90;80.90;;;;;;6121720;23;20884;-80
2022/04/20 09:33:15;;;;;;;14.10;10.95;;;10.90;81.30;;;;;;6123844;23;20871;-76
2022/04/20 09:35:53;;;;;;;14.68;11.77;;;11.00;81.20;;;;;;6121401;23;20406;-78
2022/04/20 09:38:22;;;;;;;15.15;12.00;;;11.10;80.80;;;;;;6124865;23;20376;-77
2022/04/20 09:40:49;;;;;;;16.63;12.20;;;11.20;80.80;;;;;;6122422;23;20386;-80
2022/04/20 09:43:21;;;;;;;15.15;11.30;;;11.20;80.10;;;;;;6123352;23;20376;-80
2022/04/20 09:49:08;;;;;;;13.05;10.75;;;11.30;79.00;;;;;;6123732;23;20372;-79
2022/04/20 09:51:40;;;;;;;14.32;9.70;;;11.40;77.70;;;;;;6121521;23;20372;-80
2022/04/20 09:54:26;;;;;;;13.40;10.57;;;11.40;75.80;;;;;;6125666;23;20368;-77
2022/04/20 09:57:13;;;;;;;11.18;9.77;;;11.30;78.00;;;;;;6123832;23;20410;-80
2022/04/20 10:00:00;;;;;;;12.68;11.00;;;11.40;78.80;;;;;;6124993;23;20403;-80
2022/04/20 10:03:06;;;;;;;15.45;10.20;;;11.50;76.40;;;;;;6135311;23;20414;-80
2022/04/20 10:05:34;;;;;;;12.40;9.63;;;11.60;76.00;;;;;;6038096;23;20391;-79
2022/04/20 10:08:02;;;;;;;13.83;10.30;;;11.60;75.30;;;;;;6039854;23;20383;-79
2022/04/20 10:10:31;;;;;;;11.30;8.85;;;11.60;75.30;;;;;;6041048;23;20394;-78
2022/04/20 10:13:02;;;;;;;14.90;10.60;;;11.70;74.90;;;;;;6044223;23;20387;-77
2022/04/20 10:18:18;;;;;;;11.07;8.95;;;11.80;75.60;;;;;;6091921;23;21261;-79
2022/04/20 10:20:56;;;;;;;13.07;9.83;;;11.80;75.00;;;;;;6092341;23;20527;-77
2022/04/20 10:23:24;;;;;;;14.05;9.75;;;11.80;74.80;;;;;;6070223;23;20896;-77
2022/04/20 10:25:53;;;;;;;11.38;9.10;;;11.70;73.70;;;;;;6094504;23;20452;-80
2022/04/20 10:28:28;;;;;;;12.47;9.67;;;11.80;74.60;;;;;;6066987;23;20393;-79
2022/04/20 10:31:09;;;;;;;12.70;9.55;;;11.70;75.50;;;;;;6066035;23;20444;-77
2022/04/20 10:33:38;;;;;;;11.57;9.60;;;11.80;75.30;;;;;;6091845;23;20373;-80
2022/04/20 10:36:11;;;;;;;11.93;9.80;;;11.80;75.00;;;;;;6100544;23;20383;-78
2022/04/20 10:38:46;;;;;;;11.63;9.35;;;11.80;74.90;;;;;;6120542;23;20827;-79
2022/04/20 10:41:19;;;;;;;13.88;10.30;;;11.80;75.30;;;;;;6122329;23;20448;-80
2022/04/20 10:44:03;;;;;;;14.93;10.98;;;11.80;75.90;;;;;;6122513;23;20387;-77
2022/04/20 10:46:37;;;;;;;12.05;10.73;;;11.70;76.20;;;;;;6121930;23;20387;-77
2022/04/20 10:49:17;;;;;;;12.80;10.52;;;11.80;76.10;;;;;;6124759;23;20379;-79
2022/04/20 10:51:46;;;;;;;15.25;10.43;;;11.70;76.70;;;;;;6145294;23;20391;-79
2022/04/20 10:54:29;;;;;;;12.63;11.13;;;11.80;76.70;;;;;;6121449;23;20399;-80
2022/04/20 10:56:59;;;;;;;13.32;11.70;;;11.60;77.70;;;;;;6122643;23;20754;-78
2022/04/20 10:59:32;;;;;;;15.20;11.85;;;11.60;78.90;;;;;;6122677;23;20384;-78
2022/04/20 11:02:02;;;;;;;14.82;12.38;;;11.50;79.40;;;;;;6122950;23;20868;-78
2022/04/20 11:04:45;;;;;;;14.23;12.00;;;11.50;80.90;;;;;;6121007;23;20392;-78
2022/04/20 11:07:26;;;;;;;13.93;12.15;;;11.30;81.70;;;;;;6121563;23;20903;-78
2022/04/20 11:10:03;;;;;;;16.80;14.27;;;11.20;82.80;;;;;;6121566;23;20435;-79
2022/04/20 11:18:38;;;;;;;17.88;13.93;;;11.30;83.20;;;;;;6118499;23;20435;-79
2022/04/20 11:19:04;;;;;;;16.83;14.18;;;11.20;83.10;;;;;;6118287;23;20383;-77
2022/04/20 11:21:32;;;;;;;13.75;12.35;;;11.10;83.40;;;;;;6109151;23;20375;-78
2022/04/20 11:24:06;;;;;;;13.88;12.13;;;11.10;81.50;;;;;;6120972;23;20380;-78
2022/04/20 11:26:51;;;;;;;15.30;13.63;;;11.00;81.00;;;;;;6120630;23;20376;-79
2022/04/20 11:29:24;;;;;;;15.63;12.87;;;11.00;81.90;;;;;;6102026;23;20377;-80
2022/04/20 11:32:05;;;;;;;12.68;11.38;;;11.20;83.40;;;;;;6119169;23;20415;-80
2022/04/20 11:34:45;;;;;;;14.27;12.05;;;11.40;79.40;;;;;;6110574;23;20907;-80
2022/04/20 11:37:14;;;;;;;14.38;11.07;;;11.40;79.80;;;;;;6122003;23;20383;-79
2022/04/20 11:39:41;;;;;;;16.30;12.10;;;11.30;78.70;;;;;;6117222;23;20454;-79
2022/04/20 11:42:10;;;;;;;13.98;11.90;;;11.50;80.40;;;;;;6085465;23;20375;-79
2022/04/20 11:44:39;;;;;;;14.73;11.85;;;11.50;80.30;;;;;;6120227;23;20379;-80
2022/04/20 11:47:07;;;;;;;13.85;12.38;;;11.30;79.60;;;;;;6122270;23;20435;-77
2022/04/20 11:49:46;;;;;;;15.35;12.50;;;11.30;80.40;;;;;;6122609;23;21502;-77
2022/04/20 11:52:16;;;;;;;13.25;10.80;;;11.40;79.60;;;;;;6121504;23;20368;-80
2022/04/20 11:54:45;;;;;;;12.52;10.25;;;11.60;78.70;;;;;;6120039;23;20946;-78
2022/04/20 11:57:15;;;;;;;11.65;10.43;;;11.70;76.70;;;;;;6120620;23;20500;-76
2022/04/20 11:59:47;;;;;;;11.43;9.00;;;11.80;76.60;;;;;;6122133;23;20399;-79
2022/04/20 12:02:16;;;;;;;12.50;8.82;;;12.00;75.60;;;;;;6120819;23;20581;-79
2022/04/20 12:04:44;;;;;;;12.00;9.80;;;11.90;74.20;;;;;;6112858;23;20801;-79
2022/04/20 12:07:11;;;;;;;12.77;10.17;;;11.90;74.00;;;;;;6117171;23;20435;-78
2022/04/20 12:09:42;;;;;;;11.75;10.43;;;11.90;74.80;;;;;;6122675;23;20376;-80
2022/04/20 12:12:20;;;;;;;13.95;10.80;;;11.90;76.00;;;;;;6120321;23;20431;-80
2022/04/20 12:14:48;;;;;;;13.85;10.02;;;12.00;75.20;;;;;;6120989;23;20383;-79
2022/04/20 12:17:20;;;;;;;14.38;9.07;;;12.10;74.80;;;;;;6119775;23;20383;-80
2022/04/20 12:19:50;;;;;;;13.23;9.40;;;12.20;74.20;;;;;;6123896;23;20863;-77
2022/04/20 12:22:18;;;;;;;9.90;8.90;;;12.20;74.10;;;;;;6121511;23;20387;-78
2022/04/20 12:24:45;;;;;;;10.27;8.18;;;12.30;73.10;;;;;;6121794;23;20379;-78
2022/04/20 12:27:22;;;;;;;10.00;8.30;;;12.40;72.00;;;;;;6120732;23;20388;-76
2022/04/20 12:29:54;;;;;;;10.60;8.25;;;12.30;71.70;;;;;;6121223;23;20375;-77
2022/04/20 12:32:26;;;;;;;12.05;9.38;;;12.30;72.60;;;;;;6121266;23;20376;-78
2022/04/20 12:34:54;;;;;;;10.63;9.52;;;12.30;72.40;;;;;;6111052;23;20368;-78
2022/04/20 12:37:29;;;;;;;11.63;8.52;;;12.40;73.00;;;;;;6120890;23;20384;-78
2022/04/20 12:39:58;;;;;;;10.25;9.15;;;12.50;72.60;;;;;;6123479;23;20908;-77
2022/04/20 12:42:25;;;;;;;11.90;9.55;;;12.50;72.60;;;;;;6122506;23;20915;-77
2022/04/20 12:44:53;;;;;;;12.10;9.15;;;12.60;72.70;;;;;;6112169;23;20871;-79
2022/04/20 12:47:33;;;;;;;14.80;10.25;;;12.60;71.20;;;;;;6142677;23;20391;-79
2022/04/20 12:50:00;;;;;;;12.43;9.60;;;12.60;71.70;;;;;;6120987;23;21194;-76
2022/04/20 12:52:32;;;;;;;14.38;10.57;;;12.70;71.50;;;;;;6124207;23;20404;-78
2022/04/20 12:55:13;;;;;;;12.25;10.10;;;12.80;72.10;;;;;;6096384;23;20384;-79
2022/04/20 13:03:37;;;;;;;12.73;9.48;;;13.20;70.40;;;;;;6124291;23;20439;-79
2022/04/20 13:06:10;;;;;;;10.55;9.45;;;12.90;68.80;;;;;;6105028;23;20385;-78
2022/04/20 13:08:40;;;;;;;10.40;9.10;;;12.70;69.90;;;;;;6115417;23;20470;-79
2022/04/20 13:11:11;;;;;;;11.52;10.32;;;12.80;70.10;;;;;;6121318;23;20380;-79
2022/04/20 13:13:58;;;;;;;12.30;10.23;;;12.80;70.30;;;;;;6122426;23;20399;-78
2022/04/20 13:16:25;;;;;;;12.10;10.18;;;12.70;70.50;;;;;;6124338;23;20375;-78
2022/04/20 13:18:53;;;;;;;12.13;10.20;;;12.80;71.20;;;;;;6109171;23;20386;-79
2022/04/20 13:21:20;;;;;;;12.90;9.60;;;12.90;71.00;;;;;;6123405;23;20379;-78
2022/04/20 13:23:50;;;;;;;12.37;9.50;;;12.90;70.50;;;;;;6108799;23;21145;-77
2022/04/20 13:29:06;;;;;;;12.90;10.03;;;13.00;69.80;;;;;;6122901;23;20431;-78
2022/04/20 13:31:33;;;;;;;10.07;8.98;;;12.90;70.00;;;;;;6099361;23;20382;-78